METAR Data
IDs: Format: Raw Decoded Include TAF

Data at: 1935 UTC 15 Oct 2018

METAR for:VTUK (Khon Kaen Arpt, --, TH)
Text:VTUK 151900Z VRB01KT 7000 NSC 25/24 Q1011 NOSIG
Temperature: 25.0°C ( 77°F)
Dewpoint: 24.0°C ( 75°F) [RH = 94%]
Pressure (altimeter):29.85 inches Hg (1011.0 mb)
Winds:variable direction winds at 1 MPH (1 knots; 0.5 m/s)
Visibility: 4 sm ( 7 km)
Ceiling:at least 12,000 feet AGL
Clouds:sky clear below 12,000 feet AGL
Text:VTUK 151800Z VRB02KT 7000 NSC 24/24 Q1012 NOSIG
Temperature: 24.0°C ( 75°F)
Dewpoint: 24.0°C ( 75°F) [RH = 100%]
Pressure (altimeter):29.88 inches Hg (1012.0 mb)
Winds:variable direction winds at 2 MPH (2 knots; 1.0 m/s)
Visibility: 4 sm ( 7 km)
Ceiling:at least 12,000 feet AGL
Clouds:sky clear below 12,000 feet AGL
Text:VTUK 151700Z VRB02KT 7000 FEW030 25/24 Q1012 NOSIG
Temperature: 25.0°C ( 77°F)
Dewpoint: 24.0°C ( 75°F) [RH = 94%]
Pressure (altimeter):29.88 inches Hg (1012.0 mb)
Winds:variable direction winds at 2 MPH (2 knots; 1.0 m/s)
Visibility: 4 sm ( 7 km)
Ceiling:at least 12,000 feet AGL
Clouds: few clouds at 3000 feet AGL

METAR for:VTUD (Udon Thani Arpt, --, TH)
Text:No data found

METAR for:VTUL (Loei Arpt, --, TH)
Text:No data found

METAR for:VTUI (Sakon Nakhon Arpt, --, TH)
Text:No data found

METAR for:VTUW (Nakhon Phanom Arpt, --, TH)
Text:No data found

METAR for:VTBS (Bangkok/Suvarnabhumi, --, TH)
Text:VTBS 151900Z 16007KT 140V200 9000 FEW035 28/25 Q1011 NOSIG
Temperature: 28.0°C ( 82°F)
Dewpoint: 25.0°C ( 77°F) [RH = 84%]
Pressure (altimeter):29.85 inches Hg (1011.0 mb)
Winds:from the SSE (160 degrees) at 8 MPH (7 knots; 3.6 m/s)
Visibility: 6 sm ( 9 km)
Ceiling:at least 12,000 feet AGL
Clouds: few clouds at 3500 feet AGL
Text:VTBS 151830Z 16006KT 120V190 9000 FEW035 28/25 Q1011 NOSIG
Temperature: 28.0°C ( 82°F)
Dewpoint: 25.0°C ( 77°F) [RH = 84%]
Pressure (altimeter):29.85 inches Hg (1011.0 mb)
Winds:from the SSE (160 degrees) at 7 MPH (6 knots; 3.1 m/s)
Visibility: 6 sm ( 9 km)
Ceiling:at least 12,000 feet AGL
Clouds: few clouds at 3500 feet AGL
Text:VTBS 151800Z 18004KT 9000 FEW030 28/25 Q1011 NOSIG
Temperature: 28.0°C ( 82°F)
Dewpoint: 25.0°C ( 77°F) [RH = 84%]
Pressure (altimeter):29.85 inches Hg (1011.0 mb)
Winds:from the S (180 degrees) at 5 MPH (4 knots; 2.1 m/s)
Visibility: 6 sm ( 9 km)
Ceiling:at least 12,000 feet AGL
Clouds: few clouds at 3000 feet AGL
Text:VTBS 151730Z 20003KT CAVOK 28/25 Q1011 NOSIG
Temperature: 28.0°C ( 82°F)
Dewpoint: 25.0°C ( 77°F) [RH = 84%]
Pressure (altimeter):29.85 inches Hg (1011.0 mb)
Winds:from the SSW (200 degrees) at 3 MPH (3 knots; 1.5 m/s)
Visibility:6 or more sm (10+ km)
Ceiling:ceiling and visibility are OK
Clouds:unknown
Text:VTBS 151700Z VRB03KT CAVOK 28/25 Q1011 NOSIG
Temperature: 28.0°C ( 82°F)
Dewpoint: 25.0°C ( 77°F) [RH = 84%]
Pressure (altimeter):29.85 inches Hg (1011.0 mb)
Winds:variable direction winds at 3 MPH (3 knots; 1.5 m/s)
Visibility:6 or more sm (10+ km)
Ceiling:ceiling and visibility are OK
Clouds:unknown

METAR for:VTBD (Bangkok Intl, --, TH)
Text:VTBD 151900Z 15003KT 9999 FEW030 28/26 Q1011 NOSIG
Temperature: 28.0°C ( 82°F)
Dewpoint: 26.0°C ( 79°F) [RH = 89%]
Pressure (altimeter):29.85 inches Hg (1011.0 mb)
Winds:from the SSE (150 degrees) at 3 MPH (3 knots; 1.5 m/s)
Visibility:6 or more sm (10+ km)
Ceiling:at least 12,000 feet AGL
Clouds: few clouds at 3000 feet AGL
Text:VTBD 151830Z 16004KT 9999 FEW020 28/26 Q1011 NOSIG
Temperature: 28.0°C ( 82°F)
Dewpoint: 26.0°C ( 79°F) [RH = 89%]
Pressure (altimeter):29.85 inches Hg (1011.0 mb)
Winds:from the SSE (160 degrees) at 5 MPH (4 knots; 2.1 m/s)
Visibility:6 or more sm (10+ km)
Ceiling:at least 12,000 feet AGL
Clouds: few clouds at 2000 feet AGL
Text:VTBD 151800Z 17002KT 9999 FEW020 28/26 Q1011 NOSIG
Temperature: 28.0°C ( 82°F)
Dewpoint: 26.0°C ( 79°F) [RH = 89%]
Pressure (altimeter):29.85 inches Hg (1011.0 mb)
Winds:from the S (170 degrees) at 2 MPH (2 knots; 1.0 m/s)
Visibility:6 or more sm (10+ km)
Ceiling:at least 12,000 feet AGL
Clouds: few clouds at 2000 feet AGL
Text:VTBD 151730Z 16002KT 9999 FEW020 29/26 Q1011 NOSIG
Temperature: 29.0°C ( 84°F)
Dewpoint: 26.0°C ( 79°F) [RH = 84%]
Pressure (altimeter):29.85 inches Hg (1011.0 mb)
Winds:from the SSE (160 degrees) at 2 MPH (2 knots; 1.0 m/s)
Visibility:6 or more sm (10+ km)
Ceiling:at least 12,000 feet AGL
Clouds: few clouds at 2000 feet AGL
Text:VTBD 151700Z 00000KT 9999 FEW020 28/26 Q1012 NOSIG
Temperature: 28.0°C ( 82°F)
Dewpoint: 26.0°C ( 79°F) [RH = 89%]
Pressure (altimeter):29.88 inches Hg (1012.0 mb)
Winds:calm
Visibility:6 or more sm (10+ km)
Ceiling:at least 12,000 feet AGL
Clouds: few clouds at 2000 feet AGL